Marion, Virginia
Current Conditions -  °F | °C
As of 11:35 AM on Thursday 30 Oct 2014 (Local Time) from KMKJ Reporting Station
Overcast Overcast  
Wind Chill: 45°   Ceiling: 1700
Heat Index: 47°   Visibility: 10mi
Dew Point: 38°   Wind: 5mph
Humidity: 71%   Direction: 270°W
Pressure: 30.11"   Gusts: NA
Location:  36.83°N, 81.52°W
Report Text: KMKJ 301535Z AUTO 27004KT 10SM OVC017 09/04 A3011 RMK AO2 T00850035
Loading
Personal Weather Stations






























Interactive Weather Map
Tropical Storm Tracking
New forecast layout! Learn more

10-Day Weather Forecast

Advertisements
Track Severe Weather on mobile